createdAt,value
2018-07-09T00:01:35.935Z,18.19
2018-07-09T00:04:05.060Z,18.09
2018-07-09T00:06:34.136Z,17.99
2018-07-09T00:09:03.288Z,18.00
2018-07-09T00:11:32.369Z,17.97
2018-07-09T00:14:01.479Z,17.97
2018-07-09T00:16:30.597Z,17.87
2018-07-09T00:18:59.692Z,17.77
2018-07-09T00:21:28.777Z,17.77
2018-07-09T00:23:57.880Z,17.78
2018-07-09T00:26:26.956Z,17.83
2018-07-09T00:28:56.052Z,17.78
2018-07-09T00:31:25.121Z,17.77
2018-07-09T00:33:54.220Z,17.67
2018-07-09T00:36:23.301Z,17.44
2018-07-09T00:38:52.396Z,17.23
2018-07-09T00:41:23.408Z,17.07
2018-07-09T00:43:52.790Z,17.04
2018-07-09T00:46:21.845Z,17.13
2018-07-09T00:48:50.935Z,17.14
2018-07-09T00:51:20.035Z,17.15
2018-07-09T00:53:49.160Z,17.14
2018-07-09T00:56:18.233Z,17.09
2018-07-09T00:58:47.336Z,17.11
2018-07-09T01:01:16.409Z,17.10
2018-07-09T01:03:45.483Z,16.98
2018-07-09T01:06:14.577Z,16.88
2018-07-09T01:08:43.698Z,16.88
2018-07-09T01:11:24.166Z,16.88
2018-07-09T01:13:53.256Z,16.74
2018-07-09T01:16:22.351Z,16.70
2018-07-09T01:18:51.468Z,16.58
2018-07-09T01:21:20.538Z,16.62
2018-07-09T01:23:49.607Z,16.68
2018-07-09T01:26:18.706Z,16.74
2018-07-09T01:28:47.783Z,16.78
2018-07-09T01:31:16.884Z,16.79
2018-07-09T01:33:45.956Z,16.77
2018-07-09T01:36:15.048Z,16.77
2018-07-09T01:38:44.124Z,16.68
2018-07-09T01:41:13.212Z,16.64
2018-07-09T01:43:42.275Z,16.56
2018-07-09T01:46:11.376Z,16.57
2018-07-09T01:48:40.445Z,16.61
2018-07-09T01:51:09.536Z,16.63
2018-07-09T01:53:38.627Z,16.63
2018-07-09T01:56:07.712Z,16.64
2018-07-09T01:58:36.772Z,16.63
2018-07-09T02:01:05.859Z,16.60
2018-07-09T02:03:34.928Z,16.55
2018-07-09T02:06:04.013Z,16.53
2018-07-09T02:08:33.079Z,16.53
2018-07-09T02:11:02.184Z,16.48
2018-07-09T02:13:31.248Z,16.46
2018-07-09T02:16:00.360Z,16.48
2018-07-09T02:18:29.432Z,16.43
2018-07-09T02:20:58.520Z,16.15
2018-07-09T02:23:27.580Z,16.02
2018-07-09T02:25:56.667Z,16.00
2018-07-09T02:28:25.782Z,15.96
2018-07-09T02:30:54.862Z,15.96
2018-07-09T02:33:23.924Z,15.99
2018-07-09T02:35:53.028Z,15.98
2018-07-09T02:38:22.099Z,16.12
2018-07-09T02:40:51.172Z,16.16
2018-07-09T02:43:20.267Z,16.20
2018-07-09T02:45:49.335Z,16.21
2018-07-09T02:48:18.445Z,16.11
2018-07-09T02:50:47.507Z,16.11
2018-07-09T02:53:16.616Z,16.15
2018-07-09T02:55:45.688Z,16.14
2018-07-09T02:58:14.780Z,15.95
2018-07-09T03:00:43.898Z,15.88
2018-07-09T03:03:12.965Z,15.83
2018-07-09T03:05:42.040Z,15.74
2018-07-09T03:08:11.129Z,15.83
2018-07-09T03:10:40.229Z,15.90
2018-07-09T03:13:09.341Z,15.96
2018-07-09T03:15:38.444Z,16.12
2018-07-09T03:18:07.589Z,16.23
2018-07-09T03:20:36.677Z,16.30
2018-07-09T03:23:05.840Z,16.29
2018-07-09T03:25:35.005Z,16.26
2018-07-09T03:28:04.067Z,16.35
2018-07-09T03:30:33.173Z,16.33
2018-07-09T03:33:02.276Z,16.30
2018-07-09T03:35:31.487Z,16.34
2018-07-09T03:38:00.569Z,16.37
2018-07-09T03:40:29.656Z,16.39
2018-07-09T03:42:58.783Z,16.44
2018-07-09T03:45:27.875Z,16.55
2018-07-09T03:47:56.993Z,16.64
2018-07-09T03:50:26.089Z,16.60
2018-07-09T03:52:55.220Z,16.53
2018-07-09T03:55:24.313Z,16.55
2018-07-09T03:57:53.401Z,16.63
2018-07-09T04:00:22.529Z,16.70
2018-07-09T04:02:51.620Z,16.70
2018-07-09T04:05:20.732Z,16.69
2018-07-09T04:07:49.824Z,16.77
2018-07-09T04:10:18.952Z,16.76
2018-07-09T04:12:48.051Z,16.75
2018-07-09T04:15:17.170Z,16.75
2018-07-09T04:17:46.264Z,16.69
2018-07-09T04:20:15.368Z,16.66
2018-07-09T04:22:44.462Z,16.69
2018-07-09T04:25:13.586Z,16.68
2018-07-09T04:27:42.681Z,16.66
2018-07-09T04:30:12.067Z,16.61
2018-07-09T04:32:41.458Z,16.58
2018-07-09T04:35:10.591Z,16.57
2018-07-09T04:37:39.973Z,16.61
2018-07-09T04:40:09.021Z,16.72
2018-07-09T04:42:38.101Z,16.75
2018-07-09T04:45:07.213Z,16.85
2018-07-09T04:47:36.289Z,17.07
2018-07-09T04:50:06.172Z,17.26
2018-07-09T04:52:35.261Z,17.35
2018-07-09T04:55:04.376Z,17.46
2018-07-09T04:57:33.462Z,17.58
2018-07-09T05:00:02.556Z,17.68
2018-07-09T05:02:31.636Z,17.76
2018-07-09T05:05:00.804Z,17.82
2018-07-09T05:07:29.828Z,17.97
2018-07-09T05:09:58.953Z,17.95
2018-07-09T05:12:28.024Z,17.94
2018-07-09T05:14:57.391Z,17.95
2018-07-09T05:17:26.561Z,18.05
2018-07-09T05:19:55.652Z,17.98
2018-07-09T05:22:24.736Z,17.99
2018-07-09T05:24:53.849Z,17.95
2018-07-09T05:27:22.919Z,18.03
2018-07-09T05:29:51.993Z,18.04
2018-07-09T05:32:21.112Z,18.16
2018-07-09T05:34:50.220Z,18.23
2018-07-09T05:37:19.328Z,18.31
2018-07-09T05:39:48.408Z,18.53
2018-07-09T05:42:17.512Z,18.66
2018-07-09T05:44:47.233Z,18.73
2018-07-09T05:47:16.340Z,18.72
2018-07-09T05:49:45.420Z,18.86
2018-07-09T05:52:14.523Z,18.91
2018-07-09T05:54:43.636Z,18.90
2018-07-09T05:57:12.746Z,19.07
2018-07-09T05:59:41.908Z,19.34
2018-07-09T06:02:11.024Z,19.29
2018-07-09T06:04:40.108Z,19.26
2018-07-09T06:07:09.220Z,19.31
2018-07-09T06:09:38.309Z,19.35
2018-07-09T06:12:07.596Z,19.50
2018-07-09T06:14:36.700Z,19.92
2018-07-09T06:17:06.081Z,20.09
2018-07-09T06:19:35.532Z,19.97
2018-07-09T06:22:04.556Z,19.90
2018-07-09T06:24:33.652Z,19.98
2018-07-09T06:27:02.748Z,20.23
2018-07-09T06:29:31.841Z,20.09
2018-07-09T06:32:00.948Z,19.96
2018-07-09T06:34:30.033Z,20.01
2018-07-09T06:36:59.150Z,20.25
2018-07-09T06:39:28.227Z,20.46
2018-07-09T06:41:57.328Z,20.59
2018-07-09T06:44:26.417Z,20.85
2018-07-09T06:46:55.529Z,20.87
2018-07-09T06:49:24.620Z,20.81
2018-07-09T06:51:54.179Z,20.62
2018-07-09T06:54:23.276Z,20.53
2018-07-09T06:56:52.385Z,20.31
2018-07-09T06:59:21.467Z,20.14
2018-07-09T07:01:50.564Z,20.37
2018-07-09T07:04:19.632Z,20.71
2018-07-09T07:06:48.748Z,20.81
2018-07-09T07:09:17.825Z,21.05
2018-07-09T07:11:46.917Z,21.01
2018-07-09T07:14:16.035Z,20.59
2018-07-09T07:16:45.091Z,20.77
2018-07-09T07:19:14.204Z,21.32
2018-07-09T07:21:43.280Z,21.32
2018-07-09T07:24:12.383Z,21.30
2018-07-09T07:26:41.452Z,21.27
2018-07-09T07:29:10.557Z,21.24
2018-07-09T07:31:39.664Z,21.29
2018-07-09T07:34:08.752Z,21.31
2018-07-09T07:36:37.832Z,21.46
2018-07-09T07:39:06.928Z,21.32
2018-07-09T07:41:35.998Z,21.83
2018-07-09T07:44:05.099Z,21.79
2018-07-09T07:46:34.177Z,22.02
2018-07-09T07:49:03.268Z,22.00
2018-07-09T07:51:32.367Z,22.05
2018-07-09T07:54:01.485Z,21.94
2018-07-09T07:56:30.552Z,21.79
2018-07-09T07:58:59.648Z,21.82
2018-07-09T08:01:28.736Z,21.73
2018-07-09T08:03:57.912Z,21.46
2018-07-09T08:06:27.133Z,21.36
2018-07-09T08:08:56.246Z,21.55
2018-07-09T08:11:47.729Z,21.77
2018-07-09T08:13:54.453Z,21.82
2018-07-09T08:16:23.516Z,22.08
2018-07-09T08:18:52.622Z,21.99
2018-07-09T08:21:21.877Z,21.79
2018-07-09T08:23:51.316Z,21.79
2018-07-09T08:26:20.432Z,21.87
2018-07-09T08:28:49.542Z,22.01
2018-07-09T08:31:18.644Z,22.09
2018-07-09T08:33:47.804Z,22.13
2018-07-09T08:36:16.924Z,22.22
2018-07-09T08:38:46.021Z,22.28
2018-07-09T08:41:15.093Z,22.44
2018-07-09T08:43:44.188Z,22.56
2018-07-09T08:46:13.264Z,22.50
2018-07-09T08:48:42.351Z,22.50
2018-07-09T08:51:11.428Z,22.41
2018-07-09T08:53:40.543Z,22.30
2018-07-09T08:56:09.626Z,22.08
2018-07-09T08:58:38.716Z,21.88
2018-07-09T09:01:08.097Z,21.89
2018-07-09T09:03:37.131Z,22.11
2018-07-09T09:06:06.224Z,22.14
2018-07-09T09:08:35.296Z,22.18
2018-07-09T09:11:04.392Z,22.26
2018-07-09T09:13:33.461Z,22.17
2018-07-09T09:16:02.581Z,22.30
2018-07-09T09:18:31.660Z,22.55
2018-07-09T09:21:00.768Z,22.65
2018-07-09T09:23:29.856Z,22.53
2018-07-09T09:25:58.987Z,22.65
2018-07-09T09:28:28.060Z,22.47
2018-07-09T09:30:57.164Z,22.26
2018-07-09T09:33:26.248Z,22.17
2018-07-09T09:35:55.332Z,22.12
2018-07-09T09:38:24.424Z,21.99
2018-07-09T09:40:53.520Z,21.87
2018-07-09T09:43:22.592Z,21.83
2018-07-09T09:45:51.690Z,21.85
2018-07-09T09:48:20.817Z,22.14
2018-07-09T09:50:49.903Z,21.93
2018-07-09T09:53:19.001Z,21.85
2018-07-09T09:55:48.095Z,21.77
2018-07-09T09:58:17.213Z,21.63
2018-07-09T10:00:51.316Z,21.58
2018-07-09T10:03:20.443Z,21.71
2018-07-09T10:05:49.819Z,21.70
2018-07-09T10:08:18.912Z,21.70
2018-07-09T10:10:48.029Z,21.66
2018-07-09T10:13:17.124Z,21.65
2018-07-09T10:15:46.212Z,21.51
2018-07-09T10:18:15.321Z,21.26
2018-07-09T10:20:44.417Z,21.27
2018-07-09T10:23:13.613Z,21.13
2018-07-09T10:25:42.673Z,21.14
2018-07-09T10:28:11.760Z,21.29
2018-07-09T10:30:41.120Z,21.52
2018-07-09T10:33:10.204Z,21.99
2018-07-09T10:35:39.312Z,22.40
2018-07-09T10:38:08.392Z,22.89
2018-07-09T10:40:37.508Z,23.21
2018-07-09T10:43:06.583Z,23.43
2018-07-09T10:45:35.651Z,23.52
2018-07-09T10:48:04.770Z,23.30
2018-07-09T10:50:33.865Z,23.05
2018-07-09T10:53:02.977Z,22.91
2018-07-09T10:55:32.156Z,22.75
2018-07-09T10:58:01.288Z,22.62
2018-07-09T11:00:30.685Z,22.64
2018-07-09T11:02:59.809Z,22.61
2018-07-09T11:05:28.896Z,22.61
2018-07-09T11:07:57.992Z,22.80
2018-07-09T11:10:27.755Z,23.06
2018-07-09T11:12:56.888Z,23.22
2018-07-09T11:15:25.952Z,23.29
2018-07-09T11:17:55.048Z,23.52
2018-07-09T11:20:24.292Z,23.53
2018-07-09T11:22:53.389Z,23.62
2018-07-09T11:25:22.601Z,23.66
2018-07-09T11:27:51.680Z,23.80
2018-07-09T11:30:20.776Z,23.82
2018-07-09T11:32:49.868Z,23.73
